Observation data for McLean on 02/15/2017      Previous  Date  Next       Current Mesonet Observations  Soil Data  Daily Summary Page  Observations in Plain Language
KMCS 150600Z 31008KT M01/M03 A3012 RMK A01 T10111029  RH  088%=      5-min Rain = 0
KMCS 150605Z 32008KT M01/M03 A3012 RMK A01 T10091029  RH  087%=      5-min Rain = 0
KMCS 150610Z 32009KT M01/M03 A3013 RMK A01 T10071029  RH  086%=      5-min Rain = 0
KMCS 150615Z 32009KT M00/M03 A3013 RMK A01 T10041028  RH  085%=      5-min Rain = 0
KMCS 150620Z 32009KT M00/M03 A3013 RMK A01 T10021026  RH  084%=      5-min Rain = 0
KMCS 150625Z 32009KT 00/03 A3013 RMK A01 T00-00-25  RH  084%=      5-min Rain = 0
KMCS 150630Z 32010KT 00/03 A3013 RMK A01 T00-00-26  RH  084%=      5-min Rain = 0
KMCS 150635Z 33009KT 00/M03 A3013 RMK A01 T00011026  RH  083%=      5-min Rain = 0
KMCS 150640Z 33010KT 00/M03 A3013 RMK A01 T00031026  RH  082%=      5-min Rain = 0
KMCS 150645Z 33010KT 01/M03 A3013 RMK A01 T00051026  RH  081%=      5-min Rain = 0
KMCS 150650Z 33010KT 00/M03 A3013 RMK A01 T00041026  RH  081%=      5-min Rain = 0
KMCS 150655Z 33010KT 00/M03 A3013 RMK A01 T00041027  RH  081%=      5-min Rain = 0
KMCS 150700Z 33009KT 00/M03 A3013 RMK A01 T00031027  RH  081%=      5-min Rain = 0
KMCS 150705Z 33009KT 00/M03 A3014 RMK A01 T00021028  RH  081%=      5-min Rain = 0
KMCS 150710Z 33010KT 00/M03 A3014 RMK A01 T00041028  RH  080%=      5-min Rain = 0
KMCS 150715Z 33010KT 00/M03 A3014 RMK A01 T00031029  RH  080%=      5-min Rain = 0
KMCS 150720Z 33011KT 00/M03 A3014 RMK A01 T00021030  RH  080%=      5-min Rain = 0
KMCS 150725Z 33011KT 00/M03 A3014 RMK A01 T00011031  RH  080%=      5-min Rain = 0
KMCS 150730Z 33011KT M00/M03 A3014 RMK A01 T10021032  RH  081%=      5-min Rain = 0
KMCS 150735Z 33010KT M00/M03 A3014 RMK A01 T10021032  RH  081%=      5-min Rain = 0
KMCS 150740Z 33009KT M00/M03 A3014 RMK A01 T10031033  RH  081%=      5-min Rain = 0
KMCS 150745Z 33009KT M00/M03 A3014 RMK A01 T10041034  RH  081%=      5-min Rain = 0
KMCS 150750Z 33009KT M01/M03 A3014 RMK A01 T10051034  RH  082%=      5-min Rain = 0
KMCS 150755Z 32010KT M01/M04 A3014 RMK A01 T10101037  RH  083%=      5-min Rain = 0
KMCS 150800Z 32009KT M01/M04 A3014 RMK A01 T10121037  RH  084%=      5-min Rain = 0
KMCS 150805Z 32010KT M01/M04 A3014 RMK A01 T10091036  RH  083%=      5-min Rain = 0
KMCS 150810Z 32010KT M01/M04 A3014 RMK A01 T10101037  RH  083%=      5-min Rain = 0
KMCS 150815Z 32009KT M02/M04 A3015 RMK A01 T10151041  RH  084%=      5-min Rain = 0
KMCS 150820Z 32008KT M02/M04 A3015 RMK A01 T10201042  RH  086%=      5-min Rain = 0
KMCS 150825Z 32008KT M02/M04 A3015 RMK A01 T10221042  RH  087%=      5-min Rain = 0
KMCS 150830Z 31009KT M02/M04 A3015 RMK A01 T10231042  RH  088%=      5-min Rain = 0
KMCS 150835Z 32009KT M02/M04 A3015 RMK A01 T10211041  RH  087%=      5-min Rain = 0
KMCS 150840Z 31009KT M02/M04 A3015 RMK A01 T10181040  RH  086%=      5-min Rain = 0
KMCS 150845Z 31008KT M02/M04 A3015 RMK A01 T10221044  RH  086%=      5-min Rain = 0
KMCS 150850Z 30007KT M03/M05 A3015 RMK A01 T10261045  RH  087%=      5-min Rain = 0
KMCS 150855Z 30008KT M03/M05 A3015 RMK A01 T10281046  RH  088%=      5-min Rain = 0
KMCS 150900Z 30008KT M03/M05 A3015 RMK A01 T10271046  RH  088%=      5-min Rain = 0
KMCS 150905Z 30009KT M02/M05 A3015 RMK A01 T10241046  RH  086%=      5-min Rain = 0
KMCS 150910Z 30009KT M03/M05 A3015 RMK A01 T10251048  RH  086%=      5-min Rain = 0
KMCS 150915Z 31009KT M02/M05 A3015 RMK A01 T10241046  RH  086%=      5-min Rain = 0
KMCS 150920Z 31009KT M02/M05 A3015 RMK A01 T10231046  RH  085%=      5-min Rain = 0
KMCS 150925Z 30009KT M02/M05 A3015 RMK A01 T10241046  RH  086%=      5-min Rain = 0
KMCS 150930Z 30009KT M03/M05 A3015 RMK A01 T10261048  RH  086%=      5-min Rain = 0
KMCS 150935Z 30009KT M03/M05 A3015 RMK A01 T10271048  RH  087%=      5-min Rain = 0
KMCS 150940Z 30009KT M03/M05 A3016 RMK A01 T10291049  RH  087%=      5-min Rain = 0
KMCS 150945Z 30009KT M03/M05 A3016 RMK A01 T10281049  RH  087%=      5-min Rain = 0
KMCS 150950Z 30009KT M03/M05 A3016 RMK A01 T10281049  RH  087%=      5-min Rain = 0
KMCS 150955Z 30009KT M03/M05 A3016 RMK A01 T10281049  RH  086%=      5-min Rain = 0
KMCS 151000Z 30008KT M03/M05 A3016 RMK A01 T10281049  RH  087%=      5-min Rain = 0
KMCS 151005Z 30009KT M03/M05 A3016 RMK A01 T10301050  RH  087%=      5-min Rain = 0
KMCS 151010Z 30009KT M03/M05 A3016 RMK A01 T10291049  RH  087%=      5-min Rain = 0
KMCS 151015Z 30009KT M03/M05 A3016 RMK A01 T10281049  RH  087%=      5-min Rain = 0
KMCS 151020Z 30009KT M03/M05 A3017 RMK A01 T10281049  RH  086%=      5-min Rain = 0
KMCS 151025Z 31009KT M03/M05 A3017 RMK A01 T10291050  RH  086%=      5-min Rain = 0
KMCS 151030Z 31009KT M03/M05 A3017 RMK A01 T10311051  RH  087%=      5-min Rain = 0
KMCS 151035Z 30009KT M03/M05 A3017 RMK A01 T10311051  RH  087%=      5-min Rain = 0
KMCS 151040Z 30009KT M03/M05 A3017 RMK A01 T10311051  RH  087%=      5-min Rain = 0
KMCS 151045Z 30009KT M03/M05 A3017 RMK A01 T10321052  RH  087%=      5-min Rain = 0
KMCS 151050Z 30009KT M03/M05 A3017 RMK A01 T10321052  RH  087%=      5-min Rain = 0
KMCS 151055Z 30010KT M03/M05 A3017 RMK A01 T10291051  RH  086%=      5-min Rain = 0
KMCS 151100Z 30009KT M03/M05 A3017 RMK A01 T10271050  RH  085%=      5-min Rain = 0
KMCS 151105Z 30009KT M03/M05 A3018 RMK A01 T10271050  RH  085%=      5-min Rain = 0
KMCS 151110Z 30009KT M03/M05 A3018 RMK A01 T10281051  RH  085%=      5-min Rain = 0
KMCS 151115Z 31009KT M03/M05 A3018 RMK A01 T10291052  RH  085%=      5-min Rain = 0
KMCS 151120Z 31009KT M03/M05 A3018 RMK A01 T10291051  RH  086%=      5-min Rain = 0
KMCS 151125Z 31009KT M03/M05 A3018 RMK A01 T10301052  RH  086%=      5-min Rain = 0
KMCS 151130Z 31009KT M03/M05 A3018 RMK A01 T10321054  RH  086%=      5-min Rain = 0
KMCS 151135Z 31010KT M03/M06 A3018 RMK A01 T10341055  RH  086%=      5-min Rain = 0
KMCS 151140Z 31009KT M04/M06 A3018 RMK A01 T10351056  RH  086%=      5-min Rain = 0
KMCS 151145Z 31009KT M04/M06 A3018 RMK A01 T10371057  RH  087%=      5-min Rain = 0
KMCS 151150Z 31009KT M04/M06 A3018 RMK A01 T10371057  RH  087%=      5-min Rain = 0
KMCS 151155Z 31009KT M04/M06 A3018 RMK A01 T10381057  RH  087%=      5-min Rain = 0
KMCS 151200Z 32009KT M04/M06 A3018 RMK A01 T10391058  RH  088%=      5-min Rain = 0
KMCS 151205Z 32010KT M04/M06 A3018 RMK A01 T10371055  RH  088%=      5-min Rain = 0
KMCS 151210Z 32010KT M04/M06 A3018 RMK A01 T10351055  RH  087%=      5-min Rain = 0
KMCS 151215Z 32010KT M04/M06 A3018 RMK A01 T10371056  RH  087%=      5-min Rain = 0
KMCS 151220Z 32009KT M04/M06 A3018 RMK A01 T10401059  RH  088%=      5-min Rain = 0
KMCS 151225Z 32009KT M04/M06 A3018 RMK A01 T10411059  RH  088%=      5-min Rain = 0
KMCS 151230Z 32010KT M04/M06 A3018 RMK A01 T10411058  RH  089%=      5-min Rain = 0
KMCS 151235Z 32010KT M04/M06 A3019 RMK A01 T10411058  RH  089%=      5-min Rain = 0
KMCS 151240Z 32009KT M04/M06 A3019 RMK A01 T10391057  RH  089%=      5-min Rain = 0
KMCS 151245Z 32009KT M04/M06 A3019 RMK A01 T10371056  RH  088%=      5-min Rain = 0
KMCS 151250Z 33009KT M04/M06 A3019 RMK A01 T10401059  RH  088%=      5-min Rain = 0
KMCS 151255Z 33009KT M04/M06 A3019 RMK A01 T10391059  RH  087%=      5-min Rain = 0
KMCS 151300Z 33009KT M04/M06 A3019 RMK A01 T10361057  RH  087%=      5-min Rain = 0
KMCS 151305Z 33010KT M03/M06 A302 RMK A01 T10341055  RH  086%=      5-min Rain = 0
KMCS 151310Z 32009KT M03/M06 A302 RMK A01 T10321055  RH  085%=      5-min Rain = 0
KMCS 151315Z 32010KT M03/M06 A302 RMK A01 T10331056  RH  085%=      5-min Rain = 0
KMCS 151320Z 32009KT M04/M06 A302 RMK A01 T10351057  RH  086%=      5-min Rain = 0
KMCS 151325Z 33010KT M04/M06 A302 RMK A01 T10371058  RH  086%=      5-min Rain = 0
KMCS 151330Z 33010KT M04/M06 A302 RMK A01 T10361057  RH  086%=      5-min Rain = 0
KMCS 151335Z 33010KT M04/M06 A302 RMK A01 T10351057  RH  086%=      5-min Rain = 0
KMCS 151340Z 33010KT M03/M06 A302 RMK A01 T10341057  RH  085%=      5-min Rain = 0
KMCS 151345Z 33010KT M03/M06 A302 RMK A01 T10341058  RH  085%=      5-min Rain = 0
KMCS 151350Z 33009KT M03/M06 A302 RMK A01 T10331057  RH  084%=      5-min Rain = 0
KMCS 151355Z 32009KT M03/M06 A302 RMK A01 T10331058  RH  084%=      5-min Rain = 0
KMCS 151400Z 32009KT M03/M06 A3021 RMK A01 T10321057  RH  084%=      5-min Rain = 0
KMCS 151405Z 32009KT M03/M06 A3021 RMK A01 T10311056  RH  084%=      5-min Rain = 0
KMCS 151410Z 32009KT M03/M06 A3021 RMK A01 T10301055  RH  084%=      5-min Rain = 0
KMCS 151415Z 32008KT M03/M05 A3021 RMK A01 T10291054  RH  084%=      5-min Rain = 0
KMCS 151420Z 32008KT M03/M05 A3021 RMK A01 T10281053  RH  084%=      5-min Rain = 0
KMCS 151425Z 32008KT M03/M05 A3021 RMK A01 T10251051  RH  083%=      5-min Rain = 0
KMCS 151430Z 32008KT M02/M05 A3021 RMK A01 T10201048  RH  082%=      5-min Rain = 0
KMCS 151435Z 32008KT M02/M05 A3022 RMK A01 T10171046  RH  081%=      5-min Rain = 0
KMCS 151440Z 32008KT M01/M05 A3022 RMK A01 T10141045  RH  081%=      5-min Rain = 0
KMCS 151445Z 32008KT M01/M04 A3022 RMK A01 T10111043  RH  080%=      5-min Rain = 0
KMCS 151450Z 32008KT M01/M04 A3022 RMK A01 T10091041  RH  080%=      5-min Rain = 0
KMCS 151455Z 32007KT M01/M04 A3022 RMK A01 T10061039  RH  079%=      5-min Rain = 0
KMCS 151500Z 31007KT M00/M04 A3023 RMK A01 T10031038  RH  078%=      5-min Rain = 0
KMCS 151505Z 31008KT M00/M04 A3023 RMK A01 T10011038  RH  077%=      5-min Rain = 0
KMCS 151510Z 32007KT 00/M04 A3023 RMK A01 T00011038  RH  076%=      5-min Rain = 0
KMCS 151515Z 32007KT 00/M04 A3023 RMK A01 T00031036  RH  076%=      5-min Rain = 0
KMCS 151520Z 31007KT 01/M04 A3023 RMK A01 T00051035  RH  076%=      5-min Rain = 0
KMCS 151525Z 31007KT 01/M03 A3023 RMK A01 T00081033  RH  075%=      5-min Rain = 0
KMCS 151530Z 32006KT 01/M03 A3023 RMK A01 T00111030  RH  075%=      5-min Rain = 0
KMCS 151535Z 31006KT 01/M03 A3023 RMK A01 T00141031  RH  073%=      5-min Rain = 0
KMCS 151540Z 31006KT 02/M03 A3023 RMK A01 T00181030  RH  072%=      5-min Rain = 0
KMCS 151545Z 32006KT 02/M03 A3024 RMK A01 T00201029  RH  070%=      5-min Rain = 0
KMCS 151550Z 32006KT 02/M03 A3024 RMK A01 T00231029  RH  069%=      5-min Rain = 0
KMCS 151555Z 32007KT 02/M03 A3023 RMK A01 T00241030  RH  068%=      5-min Rain = 0
KMCS 151600Z 32007KT 03/M03 A3023 RMK A01 T00261029  RH  068%=      5-min Rain = 0
KMCS 151605Z 32007KT 03/M03 A3023 RMK A01 T00281030  RH  067%=      5-min Rain = 0
KMCS 151610Z 33006KT 03/M03 A3023 RMK A01 T00301028  RH  066%=      5-min Rain = 0
KMCS 151615Z 33006KT 03/M03 A3023 RMK A01 T00321027  RH  066%=      5-min Rain = 0
KMCS 151620Z 32006KT 03/M03 A3023 RMK A01 T00341028  RH  065%=      5-min Rain = 0
KMCS 151625Z 32006KT 04/M03 A3023 RMK A01 T00371027  RH  064%=      5-min Rain = 0
KMCS 151630Z 32005KT 04/M03 A3023 RMK A01 T00381029  RH  062%=      5-min Rain = 0
KMCS 151635Z 32005KT 04/M03 A3023 RMK A01 T00411031  RH  060%=      5-min Rain = 0
KMCS 151640Z 31005KT 04/M03 A3023 RMK A01 T00431031  RH  059%=      5-min Rain = 0
KMCS 151645Z 31004KT 05/M03 A3023 RMK A01 T00451029  RH  059%=      5-min Rain = 0
KMCS 151650Z 32004KT 05/M04 A3023 RMK A01 T00481036  RH  055%=      5-min Rain = 0
KMCS 151655Z 32004KT 05/M04 A3023 RMK A01 T00491039  RH  053%=      5-min Rain = 0
KMCS 151700Z 32004KT 05/M04 A3023 RMK A01 T00491038  RH  054%=      5-min Rain = 0
KMCS 151705Z 32004KT 05/M04 A3023 RMK A01 T00501043  RH  051%=      5-min Rain = 0
KMCS 151710Z 31004KT 05/M04 A3023 RMK A01 T00521036  RH  053%=      5-min Rain = 0
KMCS 151715Z 31004KT 06/M04 A3023 RMK A01 T00571037  RH  052%=      5-min Rain = 0
KMCS 151720Z 32004KT 06/M04 A3023 RMK A01 T00551044  RH  049%=      5-min Rain = 0
KMCS 151725Z 32004KT 06/M04 A3023 RMK A01 T00571043  RH  049%=      5-min Rain = 0
KMCS 151730Z 30004KT 06/M04 A3023 RMK A01 T00561041  RH  050%=      5-min Rain = 0
KMCS 151735Z 30004KT 06/M04 A3023 RMK A01 T00581037  RH  051%=      5-min Rain = 0
KMCS 151740Z 29004KT 06/M04 A3023 RMK A01 T00581040  RH  050%=      5-min Rain = 0
KMCS 151745Z 29005KT 06/M04 A3023 RMK A01 T00591040  RH  050%=      5-min Rain = 0
KMCS 151750Z 30004KT 06/M04 A3023 RMK A01 T00611040  RH  049%=      5-min Rain = 0
KMCS 151755Z 29004KT 06/M04 A3023 RMK A01 T00611038  RH  050%=      5-min Rain = 0
KMCS 151800Z 29004KT 06/M03 A3022 RMK A01 T00621034  RH  051%=      5-min Rain = 0
KMCS 151805Z 29006KT 06/M04 A3022 RMK A01 T00621035  RH  051%=      5-min Rain = 0
KMCS 151810Z 29005KT 06/M03 A3022 RMK A01 T00621032  RH  051%=      5-min Rain = 0
KMCS 151815Z 29005KT 07/M03 A3022 RMK A01 T00651029  RH  052%=      5-min Rain = 0
KMCS 151820Z 28006KT 06/M03 A3022 RMK A01 T00631032  RH  051%=      5-min Rain = 0
KMCS 151825Z 28005KT 06/M03 A3022 RMK A01 T00641030  RH  051%=      5-min Rain = 0
KMCS 151830Z 28004KT 07/M03 A3022 RMK A01 T00661031  RH  051%=      5-min Rain = 0
KMCS 151835Z 27005KT 07/M03 A3022 RMK A01 T00651025  RH  053%=      5-min Rain = 0
KMCS 151840Z 27005KT 07/M03 A3021 RMK A01 T00671027  RH  051%=      5-min Rain = 0
KMCS 151845Z 25006KT 07/M02 A3021 RMK A01 T00651020  RH  055%=      5-min Rain = 0
KMCS 151850Z 25007KT 06/M02 A3021 RMK A01 T00641024  RH  054%=      5-min Rain = 0
KMCS 151855Z 25006KT 07/M02 A302 RMK A01 T00651024  RH  054%=      5-min Rain = 0
KMCS 151900Z 27006KT 07/M02 A302 RMK A01 T00671024  RH  053%=      5-min Rain = 0
KMCS 151905Z 27006KT 07/M02 A302 RMK A01 T00701021  RH  053%=      5-min Rain = 0
KMCS 151910Z 26006KT 07/M01 A3019 RMK A01 T00681014  RH  056%=      5-min Rain = 0
KMCS 151915Z 26006KT 07/M02 A3019 RMK A01 T00701019  RH  053%=      5-min Rain = 0
KMCS 151920Z 25006KT 07/M02 A3019 RMK A01 T00701020  RH  053%=      5-min Rain = 0
KMCS 151925Z 26005KT 07/M02 A3019 RMK A01 T00731018  RH  053%=      5-min Rain = 0
KMCS 151930Z 26005KT 08/M02 A3018 RMK A01 T00751019  RH  052%=      5-min Rain = 0
KMCS 151935Z 25005KT 08/M02 A3018 RMK A01 T00751021  RH  051%=      5-min Rain = 0
KMCS 151940Z 25005KT 08/M02 A3018 RMK A01 T00761023  RH  050%=      5-min Rain = 0
KMCS 151945Z 25005KT 08/M03 A3018 RMK A01 T00761026  RH  049%=      5-min Rain = 0
KMCS 151950Z 25005KT 08/M02 A3017 RMK A01 T00771024  RH  049%=      5-min Rain = 0
KMCS 151955Z 25005KT 08/M02 A3017 RMK A01 T00791023  RH  049%=      5-min Rain = 0
KMCS 152000Z 24005KT 08/M02 A3017 RMK A01 T00811023  RH  048%=      5-min Rain = 0
KMCS 152005Z 24005KT 08/M02 A3017 RMK A01 T00841015  RH  050%=      5-min Rain = 0
KMCS 152010Z 23005KT 08/M02 A3017 RMK A01 T00821021  RH  049%=      5-min Rain = 0
KMCS 152015Z 25005KT 08/M02 A3016 RMK A01 T00841020  RH  048%=      5-min Rain = 0
KMCS 152020Z 25006KT 08/M02 A3016 RMK A01 T00841024  RH  047%=      5-min Rain = 0
KMCS 152025Z 24005KT 09/M02 A3016 RMK A01 T00851022  RH  047%=      5-min Rain = 0
KMCS 152030Z 25006KT 09/M02 A3016 RMK A01 T00871019  RH  048%=      5-min Rain = 0
KMCS 152035Z 24005KT 09/M02 A3015 RMK A01 T00881023  RH  046%=      5-min Rain = 0
KMCS 152040Z 23007KT 09/M02 A3015 RMK A01 T00891018  RH  047%=      5-min Rain = 0
KMCS 152045Z 24005KT 09/M02 A3015 RMK A01 T00891023  RH  046%=      5-min Rain = 0
KMCS 152050Z 20003KT 09/M02 A3015 RMK A01 T00931022  RH  045%=      5-min Rain = 0
KMCS 152055Z 23006KT 09/M02 A3014 RMK A01 T00941019  RH  046%=      5-min Rain = 0
KMCS 152100Z 26006KT 10/M03 A3014 RMK A01 T00981025  RH  042%=      5-min Rain = 0
KMCS 152105Z 26005G11KT 10/M03 A3014 RMK A01 T00991030  RH  041%=      5-min Rain = 0
KMCS 152110Z 26004KT 10/M02 A3014 RMK A01 T01001021  RH  043%=      5-min Rain = 0
KMCS 152115Z 26005KT 10/M03 A3014 RMK A01 T01011030  RH  040%=      5-min Rain = 0
KMCS 152120Z 25006KT 10/M02 A3013 RMK A01 T01031024  RH  041%=      5-min Rain = 0
KMCS 152125Z 26005KT 11/M02 A3013 RMK A01 T01051019  RH  042%=      5-min Rain = 0
KMCS 152130Z 25008KT 10/M01 A3013 RMK A01 T01021014  RH  045%=      5-min Rain = 0
KMCS 152135Z 24005KT 10/M02 A3013 RMK A01 T01011021  RH  043%=      5-min Rain = 0
KMCS 152140Z 24006KT 10/M02 A3013 RMK A01 T01011016  RH  045%=      5-min Rain = 0
KMCS 152145Z 23005KT 10/M02 A3013 RMK A01 T01001017  RH  044%=      5-min Rain = 0
KMCS 152150Z 24005KT 10/M02 A3012 RMK A01 T01021016  RH  044%=      5-min Rain = 0
KMCS 152155Z 24006KT 10/M02 A3012 RMK A01 T01011017  RH  044%=      5-min Rain = 0
KMCS 152200Z 23003KT 10/M02 A3012 RMK A01 T01031016  RH  044%=      5-min Rain = 0
KMCS 152205Z 22006KT 11/M01 A3012 RMK A01 T01051014  RH  044%=      5-min Rain = 0
KMCS 152210Z 24003KT 11/M02 A3012 RMK A01 T01071015  RH  043%=      5-min Rain = 0
KMCS 152215Z 25006KT 11/M02 A3011 RMK A01 T01061018  RH  042%=      5-min Rain = 0
KMCS 152220Z 22004KT 11/M02 A3011 RMK A01 T01061016  RH  043%=      5-min Rain = 0
KMCS 152225Z 22006KT 11/M02 A3011 RMK A01 T01051017  RH  043%=      5-min Rain = 0
KMCS 152230Z 22006KT 11/M02 A3011 RMK A01 T01061016  RH  043%=      5-min Rain = 0
KMCS 152235Z 22005KT 11/M02 A301 RMK A01 T01061015  RH  043%=      5-min Rain = 0
KMCS 152240Z 22006KT 11/M01 A301 RMK A01 T01071014  RH  043%=      5-min Rain = 0
KMCS 152245Z 22005KT 11/M02 A301 RMK A01 T01071015  RH  043%=      5-min Rain = 0
KMCS 152250Z 24005KT 11/M01 A301 RMK A01 T01101012  RH  043%=      5-min Rain = 0
KMCS 152255Z 23005KT 11/M02 A301 RMK A01 T01091017  RH  042%=      5-min Rain = 0
KMCS 152300Z 23004KT 11/M01 A301 RMK A01 T01101012  RH  043%=      5-min Rain = 0
KMCS 152305Z 23005KT 11/M02 A301 RMK A01 T01111015  RH  042%=      5-min Rain = 0
KMCS 152310Z 23006KT 11/M01 A3009 RMK A01 T01101014  RH  043%=      5-min Rain = 0
KMCS 152315Z 23006KT 11/M01 A3009 RMK A01 T01101007  RH  045%=      5-min Rain = 0
KMCS 152320Z 23006KT 11/M01 A3009 RMK A01 T01091010  RH  044%=      5-min Rain = 0
KMCS 152325Z 23008KT 11/M00 A3009 RMK A01 T01101004  RH  046%=      5-min Rain = 0
KMCS 152330Z 23007KT 11/M01 A3009 RMK A01 T01081007  RH  045%=      5-min Rain = 0
KMCS 152335Z 23006KT 11/M00 A3009 RMK A01 T01081001  RH  047%=      5-min Rain = 0
KMCS 152340Z 22006KT 11/M01 A3009 RMK A01 T01081005  RH  046%=      5-min Rain = 0
KMCS 152345Z 23006KT 11/M00 A3008 RMK A01 T01071003  RH  047%=      5-min Rain = 0
KMCS 152350Z 22005KT 11/M00 A3008 RMK A01 T01071001  RH  048%=      5-min Rain = 0
KMCS 152355Z 22004KT 11/M00 A3008 RMK A01 T01051002  RH  048%=      5-min Rain = 0
KMCS 160000Z 23004KT 10/00 A3008 RMK A01 T01040000  RH  049%=      5-min Rain = 0
KMCS 160005Z 24002KT 11/M00 A3008 RMK A01 T01051004  RH  047%=      5-min Rain = 0
KMCS 160010Z 22003KT 10/M00 A3008 RMK A01 T01021003  RH  049%=      5-min Rain = 0
KMCS 160015Z 21003KT 10/M00 A3008 RMK A01 T00981004  RH  050%=      5-min Rain = 0
KMCS 160020Z 20003KT 10/M01 A3008 RMK A01 T00971010  RH  048%=      5-min Rain = 0
KMCS 160025Z 21003KT 10/M01 A3008 RMK A01 T00971012  RH  047%=      5-min Rain = 0
KMCS 160030Z 20003KT 10/M01 A3008 RMK A01 T00951011  RH  048%=      5-min Rain = 0
KMCS 160035Z 19003KT 09/M01 A3008 RMK A01 T00921013  RH  048%=      5-min Rain = 0
KMCS 160040Z 18004KT 09/M01 A3008 RMK A01 T00881012  RH  050%=      5-min Rain = 0
KMCS 160045Z 18003KT 09/M01 A3008 RMK A01 T00861008  RH  052%=      5-min Rain = 0
KMCS 160050Z 17003KT 08/M01 A3008 RMK A01 T00831009  RH  053%=      5-min Rain = 0
KMCS 160055Z 17004KT 08/M01 A3008 RMK A01 T00821008  RH  053%=      5-min Rain = 0
KMCS 160100Z 17004KT 08/M01 A3008 RMK A01 T00821008  RH  054%=      5-min Rain = 0
KMCS 160105Z 17004KT 08/M01 A3008 RMK A01 T00811009  RH  054%=      5-min Rain = 0
KMCS 160110Z 17004KT 08/M01 A3008 RMK A01 T00811010  RH  053%=      5-min Rain = 0
KMCS 160115Z 17004KT 08/M01 A3008 RMK A01 T00801012  RH  053%=      5-min Rain = 0
KMCS 160120Z 17005KT 08/M01 A3008 RMK A01 T00781012  RH  053%=      5-min Rain = 0
KMCS 160125Z 17005KT 08/M01 A3008 RMK A01 T00761012  RH  055%=      5-min Rain = 0
KMCS 160130Z 17005KT 08/M01 A3008 RMK A01 T00751012  RH  055%=      5-min Rain = 0
KMCS 160135Z 18005KT 07/M01 A3009 RMK A01 T00721011  RH  056%=      5-min Rain = 0
KMCS 160140Z 17005KT 07/M01 A3009 RMK A01 T00721013  RH  056%=      5-min Rain = 0
KMCS 160145Z 17005KT 07/M02 A3009 RMK A01 T00721017  RH  054%=      5-min Rain = 0
KMCS 160150Z 17005KT 07/M02 A3008 RMK A01 T00681018  RH  055%=      5-min Rain = 0
KMCS 160155Z 17005KT 07/M02 A3008 RMK A01 T00651019  RH  055%=      5-min Rain = 0
KMCS 160200Z 17005KT 06/M02 A3008 RMK A01 T00641018  RH  056%=      5-min Rain = 0
KMCS 160205Z 18005KT 06/M02 A3008 RMK A01 T00611016  RH  058%=      5-min Rain = 0
KMCS 160210Z 18005KT 06/M02 A3008 RMK A01 T00591016  RH  059%=      5-min Rain = 0
KMCS 160215Z 18005KT 06/M02 A3008 RMK A01 T00581020  RH  058%=      5-min Rain = 0
KMCS 160220Z 18005KT 06/M02 A3009 RMK A01 T00581022  RH  057%=      5-min Rain = 0
KMCS 160225Z 19006KT 06/M02 A3009 RMK A01 T00561023  RH  057%=      5-min Rain = 0
KMCS 160230Z 18007KT 05/M03 A3009 RMK A01 T00541026  RH  057%=      5-min Rain = 0
KMCS 160235Z 18006KT 05/M03 A3009 RMK A01 T00531027  RH  057%=      5-min Rain = 0
KMCS 160240Z 19006KT 05/M03 A3009 RMK A01 T00511027  RH  057%=      5-min Rain = 0
KMCS 160245Z 19006KT 05/M03 A3009 RMK A01 T00491028  RH  058%=      5-min Rain = 0
KMCS 160250Z 19006KT 05/M03 A3009 RMK A01 T00491031  RH  057%=      5-min Rain = 0
KMCS 160255Z 19007KT 05/M03 A3009 RMK A01 T00501032  RH  056%=      5-min Rain = 0
KMCS 160300Z 19006KT 05/M03 A3009 RMK A01 T00491033  RH  056%=      5-min Rain = 0
KMCS 160305Z 19006KT 05/M03 A3009 RMK A01 T00471033  RH  057%=      5-min Rain = 0
KMCS 160310Z 19006KT 05/M03 A3009 RMK A01 T00451033  RH  057%=      5-min Rain = 0
KMCS 160315Z 19007KT 04/M03 A3009 RMK A01 T00441033  RH  058%=      5-min Rain = 0
KMCS 160320Z 19007KT 04/M03 A3009 RMK A01 T00441033  RH  058%=      5-min Rain = 0
KMCS 160325Z 19006KT 04/M03 A3009 RMK A01 T00441032  RH  058%=      5-min Rain = 0
KMCS 160330Z 20006KT 04/M03 A3009 RMK A01 T00441033  RH  058%=      5-min Rain = 0
KMCS 160335Z 20007KT 05/M03 A3009 RMK A01 T00471032  RH  057%=      5-min Rain = 0
KMCS 160340Z 20007KT 05/M03 A3009 RMK A01 T00481031  RH  057%=      5-min Rain = 0
KMCS 160345Z 20007KT 05/M03 A3009 RMK A01 T00481030  RH  058%=      5-min Rain = 0
KMCS 160350Z 20007KT 05/M03 A3009 RMK A01 T00451030  RH  059%=      5-min Rain = 0
KMCS 160355Z 20007KT 04/M03 A3009 RMK A01 T00441032  RH  058%=      5-min Rain = 0
KMCS 160400Z 20007KT 04/M03 A3009 RMK A01 T00431032  RH  059%=      5-min Rain = 0
KMCS 160405Z 21007KT 04/M03 A3008 RMK A01 T00421031  RH  060%=      5-min Rain = 0
KMCS 160410Z 21006KT 04/M03 A3008 RMK A01 T00431031  RH  059%=      5-min Rain = 0
KMCS 160415Z 21007KT 04/M03 A3008 RMK A01 T00421030  RH  060%=      5-min Rain = 0
KMCS 160420Z 21007KT 04/M03 A3008 RMK A01 T00401029  RH  061%=      5-min Rain = 0
KMCS 160425Z 21007KT 04/M03 A3008 RMK A01 T00401028  RH  062%=      5-min Rain = 0
KMCS 160430Z 21008KT 04/M03 A3008 RMK A01 T00381027  RH  063%=      5-min Rain = 0
KMCS 160435Z 21008KT 04/M03 A3008 RMK A01 T00391026  RH  063%=      5-min Rain = 0
KMCS 160440Z 21008KT 04/M03 A3008 RMK A01 T00391026  RH  063%=      5-min Rain = 0
KMCS 160445Z 20009KT 04/M03 A3008 RMK A01 T00391026  RH  063%=      5-min Rain = 0
KMCS 160450Z 20009KT 04/M03 A3008 RMK A01 T00391027  RH  063%=      5-min Rain = 0
KMCS 160455Z 20008KT 04/M03 A3008 RMK A01 T00381026  RH  064%=      5-min Rain = 0
KMCS 160500Z 20008KT 04/M03 A3008 RMK A01 T00371026  RH  064%=      5-min Rain = 0
KMCS 160505Z 20008KT 04/M03 A3008 RMK A01 T00371027  RH  063%=      5-min Rain = 0
KMCS 160510Z 21008KT 04/M03 A3007 RMK A01 T00361027  RH  064%=      5-min Rain = 0
KMCS 160515Z 21008KT 04/M03 A3007 RMK A01 T00351026  RH  065%=      5-min Rain = 0
KMCS 160520Z 21008KT 03/M02 A3007 RMK A01 T00331024  RH  066%=      5-min Rain = 0
KMCS 160525Z 21008KT 03/M02 A3007 RMK A01 T00331024  RH  067%=      5-min Rain = 0
KMCS 160530Z 21008KT 03/M03 A3007 RMK A01 T00341025  RH  066%=      5-min Rain = 0
KMCS 160535Z 21008KT 03/M03 A3007 RMK A01 T00331025  RH  067%=      5-min Rain = 0
KMCS 160540Z 21008KT 03/M03 A3007 RMK A01 T00341025  RH  066%=      5-min Rain = 0
KMCS 160545Z 21008KT 03/M02 A3006 RMK A01 T00311024  RH  068%=      5-min Rain = 0
KMCS 160550Z 21007KT 03/M02 A3006 RMK A01 T00321024  RH  068%=      5-min Rain = 0
KMCS 160555Z 21008KT 03/M02 A3006 RMK A01 T00321024  RH  068%=      5-min Rain = 0

Page generated in 0.0256 seconds.